Track Малеев Георгий

Time Latitude Longitude Accuracy (66% radius in meters) Altitude (meters) Speed (km/hour) Bearing (degrees) Battery (%) GPS flag
03:24:06 57.150635 39.348879 7.5 103.80000305176 0 0 27 1 delete
03:23:44 57.150652 39.348887 14.5 104.09999847412 0.37000000476837 263.43017578125 27 1 delete
03:13:36 57.150614 39.348858 9.5 111.69999694824 0 0 27 1 delete
03:13:21 57.150563 39.348948 15 107.90000152588 0.15999999642372 208.48754882812 27 1 delete
03:13:15 57.150519 39.348640 15 77.5 0.19999998807907 96.707153320312 27 1 delete
03:03:07 57.150667 39.349056 6.5 107.80000305176 0 0 31 1 delete
03:02:52 57.150625 39.349010 5.5 108.69999694824 0.3299999833107 341.47155761719 31 1 delete
03:02:37 57.150581 39.348975 6.5 109.19999694824 0 0 31 1 delete
03:02:07 57.150581 39.348975 7 109.19999694824 0 0 31 1 delete
03:01:37 57.150635 39.348975 6.5 109.69999694824 0 0 31 1 delete
03:01:07 57.150635 39.348975 6 109.69999694824 0 0 31 1 delete
03:00:37 57.150612 39.348964 6.5 109.40000152588 0.14000000059605 314.11010742188 31 1 delete
03:00:07 57.150624 39.348933 5.5 106.90000152588 0 0 31 1 delete
02:59:32 57.150637 39.348885 5.5 103.80000305176 0 0 31 1 delete
02:59:02 57.150637 39.348885 6.5 103.80000305176 0 0 31 1 delete
02:58:32 57.150637 39.348885 6 103.80000305176 0 0 31 1 delete
02:58:02 57.150637 39.348885 6.5 103.80000305176 0 0 31 1 delete
02:57:32 57.150639 39.348826 5.5 103.19999694824 0.39999997615814 287.5341796875 31 1 delete
02:57:02 57.150587 39.348761 7.5 101.90000152588 0 0 31 1 delete
02:56:32 57.150625 39.348865 5 102.30000305176 0 0 31 1 delete
02:56:02 57.150625 39.348865 5 102.30000305176 0 0 31 1 delete
02:55:32 57.150600 39.348816 6 104.30000305176 0 0 31 1 delete
02:55:02 57.150584 39.348840 5 101.80000305176 0 0 31 1 delete
02:54:32 57.150593 39.348826 5 103.30000305176 0 0 31 1 delete
02:54:02 57.150617 39.348810 5 104.40000152588 0 0 31 1 delete
02:53:27 57.150578 39.348856 5 105.5 0 0 31 1 delete
02:52:57 57.150593 39.348850 5.5 102.09999847412 0 0 31 1 delete
02:52:27 57.150593 39.348850 6 102.09999847412 0 0 31 1 delete
02:51:57 57.150593 39.348850 4.5 102.09999847412 0 0 31 1 delete
02:51:27 57.150593 39.348850 2.5 102.09999847412 0 0 31 1 delete
02:50:57 57.150593 39.348850 5 102.09999847412 0 0 31 1 delete
02:50:27 57.150593 39.348850 5.5 102.09999847412 0 0 31 1 delete
02:49:57 57.150603 39.348868 3.5 99.699996948242 0 0 31 1 delete
02:49:27 57.150603 39.348868 6 99.699996948242 0 0 31 1 delete
02:48:57 57.150640 39.348972 5.5 95.900001525879 0 0 31 1 delete
02:48:27 57.150640 39.348972 6.5 95.900001525879 0 0 31 1 delete
02:47:57 57.150569 39.348940 5.5 99.099998474121 0 0 35 1 delete
02:47:27 57.150569 39.348940 7.5 99.099998474121 0 0 35 1 delete
02:46:57 57.150569 39.348940 6 99.099998474121 0 0 35 1 delete
02:46:22 57.150569 39.348940 7 99.099998474121 0 0 35 1 delete
02:45:52 57.150576 39.348847 7 94.5 0 0 35 1 delete
02:45:22 57.150576 39.348847 8 94.5 0 0 35 1 delete
02:44:52 57.150576 39.348847 7.5 94.5 0 0 35 1 delete
02:44:22 57.150576 39.348847 7.5 94.5 0 0 35 1 delete
02:43:52 57.150576 39.348847 8 94.5 0 0 35 1 delete
02:43:22 57.150576 39.348847 8 94.5 0 0 35 1 delete
02:42:52 57.150559 39.348882 8 94.099998474121 0 0 35 1 delete
02:42:22 57.150559 39.348882 8 94.099998474121 0 0 35 1 delete
02:41:52 57.150578 39.348923 7 91.400001525879 0 0 35 1 delete
02:41:22 57.150560 39.348849 7.5 96.400001525879 0 0 35 1 delete